.
WxDataArchive / Data Records for 2012-12-06
2012-12-05 December 2012 2012-12-07

Data Records for Thursday, 06 December 2012

Time	Temp	Chill	HIndex	Humid	Dewpt	 Wind 	HiWind	WindDir	Rain 	Barom 
-----	----	-----	------	-----	-----	------	------	-------	-----	----- 
00:00	27.6	27.6	27.6	78	21.7	2	5	90	0.00	30.330 
00:05	27.6	27.6	27.6	78	21.7	1	4	90	0.00	30.330 
00:10	27.6	27.6	27.6	78	21.7	1	4	90	0.00	30.330 
00:15	27.6	27.6	27.6	78	21.7	1	4	90	0.00	30.321 
00:20	27.6	27.6	27.6	78	21.7	1	4	90	0.00	30.321 
00:25	27.6	27.6	27.6	78	21.7	1	4	90	0.00	30.321 
00:30	27.5	27.5	27.5	78	21.6	1	4	90	0.00	30.324 
00:35	27.5	27.5	27.5	78	21.6	2	4	90	0.00	30.324 
00:40	27.3	27.3	27.3	78	21.4	1	3	90	0.00	30.324 
00:45	27.2	27.2	27.2	78	21.3	1	5	90	0.00	30.316 
00:50	27.2	27.2	27.2	79	21.6	1	4	90	0.00	30.316 
00:55	27.2	27.2	27.2	79	21.6	1	4	68	0.00	30.316 
01:00	27.0	27.0	27.0	79	21.4	1	3	68	0.00	30.311 
01:05	27.0	27.0	27.0	79	21.4	1	2	68	0.00	30.311 
01:10	26.9	26.9	26.9	79	21.3	0	2	68	0.00	30.311 
01:15	26.9	26.9	26.9	79	21.3	1	2	68	0.00	30.304 
01:20	26.7	26.7	26.7	80	21.4	1	5	68	0.00	30.304 
01:25	26.7	26.7	26.7	80	21.4	1	3	90	0.00	30.304 
01:30	26.7	26.7	26.7	80	21.4	1	3	90	0.00	30.297 
01:35	26.7	26.7	26.7	80	21.4	1	5	90	0.00	30.297 
01:40	26.7	26.7	26.7	80	21.4	1	3	90	0.00	30.297 
01:45	26.7	26.7	26.7	80	21.4	1	3	90	0.00	30.299 
01:50	26.7	26.7	26.7	80	21.4	1	2	90	0.00	30.299 
01:55	26.7	26.7	26.7	80	21.4	1	4	90	0.00	30.299 
02:00	26.6	26.6	26.6	80	21.3	1	3	90	0.00	30.299 
02:05	26.6	26.6	26.6	80	21.3	1	4	90	0.00	30.299 
02:10	26.6	26.6	26.6	80	21.3	1	4	90	0.00	30.299 
02:15	26.6	26.6	26.6	80	21.3	1	3	90	0.00	30.298 
02:20	26.6	26.6	26.6	80	21.3	1	4	90	0.00	30.298 
02:25	26.6	26.6	26.6	80	21.3	0	2	90	0.00	30.298 
02:30	26.6	26.6	26.6	80	21.3	1	2	90	0.00	30.306 
02:35	26.4	26.4	26.4	80	21.1	0	2	90	0.00	30.306 
02:40	26.4	26.4	26.4	81	21.4	0	2	90	0.00	30.306 
02:45	26.3	26.3	26.3	81	21.3	0	2	90	0.00	30.308 
02:50	26.3	26.3	26.3	81	21.3	0	2	90	0.00	30.308 
02:55	26.1	26.1	26.1	81	21.1	0	1	90	0.00	30.308 
03:00	26.1	26.1	26.1	81	21.1	0	1	90	0.00	30.307 
03:05	26.1	26.1	26.1	81	21.1	0	2	90	0.00	30.307 
03:10	26.0	26.0	26.0	81	21.0	0	1	90	0.00	30.307 
03:15	26.0	26.0	26.0	81	21.0	0	1	90	0.00	30.299 
03:20	26.0	26.0	26.0	81	21.0	0	1	90	0.00	30.299 
03:25	25.8	25.8	25.8	81	20.8	0	1	90	0.00	30.299 
03:30	25.8	25.8	25.8	82	21.1	0	2	90	0.00	30.293 
03:35	25.8	25.8	25.8	82	21.1	0	2	90	0.00	30.293 
03:40	26.0	26.0	26.0	82	21.3	0	2	90	0.00	30.293 
03:45	26.0	26.0	26.0	82	21.3	1	3	90	0.00	30.288 
03:50	26.1	26.1	26.1	82	21.4	1	3	90	0.00	30.288 
03:55	26.1	26.1	26.1	81	21.1	0	2	90	0.00	30.288 
04:00	26.0	26.0	26.0	81	21.0	0	2	90	0.00	30.285 
04:05	26.0	26.0	26.0	82	21.3	0	2	90	0.00	30.285 
04:10	25.8	25.8	25.8	82	21.1	1	3	90	0.00	30.285 
04:15	25.7	25.7	25.7	82	21.0	1	2	90	0.00	30.278 
04:20	25.7	25.7	25.7	82	21.0	0	2	90	0.00	30.278 
04:25	25.6	25.6	25.6	82	20.9	1	3	90	0.00	30.278 
04:30	25.6	25.6	25.6	82	20.9	1	2	90	0.00	30.271 
04:35	25.6	25.6	25.6	82	20.9	1	2	90	0.00	30.271 
04:40	25.6	25.6	25.6	83	21.2	1	3	90	0.00	30.271 
04:45	25.6	25.6	25.6	83	21.2	0	2	90	0.00	30.275 
04:50	25.6	25.6	25.6	83	21.2	0	2	90	0.00	30.275 
04:55	25.4	25.4	25.4	83	21.0	0	2	90	0.00	30.275 
05:00	25.3	25.3	25.3	83	20.9	0	2	90	0.00	30.270 
05:05	25.1	25.1	25.1	83	20.7	1	2	90	0.00	30.270 
05:10	25.1	25.1	25.1	83	20.7	0	2	90	0.00	30.270 
05:15	25.1	25.1	25.1	83	20.7	0	2	90	0.00	30.275 
05:20	25.1	25.1	25.1	84	21.0	1	3	90	0.00	30.275 
05:25	25.0	25.0	25.0	84	20.9	0	1	90	0.00	30.275 
05:30	25.0	25.0	25.0	84	20.9	1	3	90	0.00	30.269 
05:35	25.0	25.0	25.0	84	20.9	2	4	90	0.00	30.269 
05:40	25.0	25.0	25.0	84	20.9	1	3	90	0.00	30.269 
05:45	25.0	25.0	25.0	84	20.9	1	3	90	0.00	30.267 
05:50	25.0	25.0	25.0	84	20.9	0	3	90	0.00	30.267 
05:55	25.0	25.0	25.0	84	20.9	1	3	90	0.00	30.267 
06:00	25.1	25.1	25.1	84	21.0	1	5	90	0.00	30.261 
06:05	25.3	25.3	25.3	84	21.2	1	5	90	0.00	30.261 
06:10	25.4	25.4	25.4	84	21.3	1	4	90	0.00	30.261 
06:15	25.4	25.4	25.4	84	21.3	0	2	90	0.00	30.259 
06:20	25.3	25.3	25.3	84	21.2	0	3	90	0.00	30.259 
06:25	25.3	25.3	25.3	84	21.2	1	2	90	0.00	30.259 
06:30	25.1	25.1	25.1	84	21.0	0	2	90	0.00	30.263 
06:35	25.0	25.0	25.0	84	20.9	1	2	90	0.00	30.263 
06:40	25.0	25.0	25.0	84	20.9	1	3	90	0.00	30.263 
06:45	25.0	25.0	25.0	84	20.9	1	3	90	0.00	30.253 
06:50	25.0	25.0	25.0	84	20.9	1	3	90	0.00	30.253 
06:55	25.0	25.0	25.0	84	20.9	1	4	90	0.00	30.253 
07:00	25.0	25.0	25.0	84	20.9	1	2	90	0.00	30.253 
07:05	25.0	25.0	25.0	84	20.9	0	2	90	0.00	30.253 
07:10	24.8	24.8	24.8	84	20.7	1	2	90	0.00	30.253 
07:15	24.8	24.8	24.8	84	20.7	0	2	90	0.00	30.255 
07:20	24.7	24.7	24.7	84	20.6	1	3	90	0.00	30.255 
07:25	24.7	24.7	24.7	84	20.6	1	3	90	0.00	30.255 
07:30	24.7	24.7	24.7	84	20.6	1	4	90	0.00	30.245 
07:35	24.7	24.7	24.7	84	20.6	0	3	90	0.00	30.245 
07:40	24.7	24.7	24.7	85	20.8	0	3	90	0.00	30.245 
07:45	24.8	24.8	24.8	84	20.7	0	1	90	0.00	30.241 
07:50	24.8	24.8	24.8	84	20.7	0	1	90	0.00	30.241 
07:55	24.8	24.8	24.8	85	20.9	1	3	90	0.00	30.241 
08:00	25.0	25.0	25.0	84	20.9	0	3	90	0.00	30.239 
08:05	25.0	25.0	25.0	84	20.9	0	2	90	0.00	30.239 
08:10	25.0	25.0	25.0	84	20.9	0	0	---	0.00	30.239 
08:15	25.1	25.1	25.1	84	21.0	0	1	90	0.00	30.246 
08:20	25.1	25.1	25.1	84	21.0	0	0	---	0.00	30.246 
08:25	25.1	25.1	25.1	84	21.0	0	1	90	0.00	30.246 
08:30	25.3	25.3	25.3	84	21.2	0	2	90	0.00	30.241 
08:35	25.4	25.4	25.4	84	21.3	0	2	90	0.00	30.241 
08:40	25.6	25.6	25.6	84	21.5	0	2	90	0.00	30.241 
08:45	25.7	25.7	25.7	84	21.5	1	2	90	0.00	30.231 
08:50	26.0	26.0	26.0	84	21.8	0	2	90	0.00	30.231 
08:55	26.1	26.1	26.1	84	21.9	0	2	90	0.00	30.231 
09:00	26.3	26.3	26.3	84	22.1	1	3	90	0.00	30.225 
09:05	26.4	26.4	26.4	83	22.0	1	3	90	0.00	30.225 
09:10	26.6	26.6	26.6	83	22.1	0	2	90	0.00	30.225 
09:15	26.7	26.7	26.7	83	22.2	0	1	90	0.00	30.223 
09:20	26.9	26.9	26.9	83	22.4	0	2	90	0.00	30.223 
09:25	27.0	27.0	27.0	83	22.5	0	1	90	0.00	30.223 
09:30	27.2	27.2	27.2	83	22.7	0	1	90	0.00	30.226 
09:35	27.3	27.3	27.3	83	22.8	0	1	90	0.00	30.226 
09:40	27.5	27.5	27.5	83	23.0	0	1	90	0.00	30.226 
09:45	27.5	27.5	27.5	82	22.7	2	4	90	0.00	30.224 
09:50	27.6	27.6	27.6	82	22.8	0	2	90	0.00	30.224 
09:55	27.9	27.9	27.9	82	23.1	0	2	90	0.00	30.224 
10:00	28.2	28.2	28.2	82	23.4	0	1	90	0.00	30.224 
10:05	28.4	28.4	28.4	82	23.6	0	1	90	0.00	30.224 
10:10	28.7	28.7	28.7	82	23.9	1	3	90	0.00	30.224 
10:15	29.0	29.0	29.0	82	24.2	0	2	90	0.00	30.216 
10:20	29.1	29.1	29.1	81	24.0	1	4	90	0.00	30.216 
10:25	29.4	29.4	29.4	81	24.3	1	4	90	0.00	30.216 
10:30	29.8	29.8	29.8	81	24.7	0	2	90	0.00	30.209 
10:35	30.3	30.3	30.3	81	25.2	0	2	112	0.00	30.209 
10:40	30.7	30.7	30.7	81	25.6	1	3	112	0.00	30.209 
10:45	31.2	31.2	31.2	80	25.8	1	4	112	0.00	30.202 
10:50	31.3	31.3	31.3	80	25.9	1	3	112	0.00	30.202 
10:55	31.6	31.6	31.6	80	26.2	1	4	90	0.00	30.202 
11:00	31.8	31.8	31.8	79	26.0	1	3	90	0.00	30.198 
11:05	32.1	32.1	32.1	79	26.3	2	5	90	0.00	30.198 
11:10	32.2	32.2	32.2	78	26.1	1	3	112	0.00	30.198 
11:15	32.4	32.4	32.4	79	26.6	1	3	112	0.00	30.187 
11:20	32.8	32.8	32.8	79	27.0	0	3	135	0.00	30.187 
11:25	33.1	33.1	33.1	78	27.0	1	4	90	0.00	30.187 
11:30	33.2	33.2	33.2	78	27.1	1	4	112	0.00	30.180 
11:35	33.5	33.5	33.5	78	27.4	0	2	112	0.00	30.180 
11:40	33.7	33.7	33.7	78	27.6	1	3	112	0.00	30.180 
11:45	33.8	33.8	33.8	78	27.7	0	2	135	0.00	30.171 
11:50	34.0	34.0	34.0	77	27.6	1	3	112	0.00	30.171 
11:55	34.1	34.1	34.1	77	27.7	0	2	112	0.00	30.171 
12:00	34.3	34.3	34.3	77	27.9	0	2	112	0.00	30.160 
12:05	34.6	34.6	34.6	77	28.1	0	2	112	0.00	30.160 
12:10	34.7	34.7	34.7	77	28.2	0	2	112	0.00	30.160 
12:15	35.0	35.0	35.0	77	28.5	1	3	112	0.00	30.146 
12:20	35.3	35.3	35.3	77	28.8	1	4	112	0.00	30.146 
12:25	35.5	35.5	35.5	77	29.0	2	4	90	0.00	30.146 
12:30	35.8	35.8	35.8	77	29.3	1	4	112	0.00	30.134 
12:35	35.9	35.9	35.9	77	29.4	0	2	112	0.00	30.134 
12:40	36.2	36.2	36.2	76	29.4	1	3	135	0.00	30.134 
12:45	36.3	36.3	36.3	76	29.5	1	3	90	0.00	30.119 
12:50	36.6	36.6	36.6	77	30.1	1	4	90	0.00	30.119 
12:55	36.8	36.8	36.8	76	30.0	1	3	112	0.00	30.119 
13:00	37.0	37.0	37.0	76	30.2	1	3	135	0.00	30.102 
13:05	37.2	37.2	37.2	76	30.3	1	3	112	0.00	30.102 
13:10	37.2	37.2	37.2	76	30.3	1	4	90	0.00	30.102 
13:15	37.3	37.3	37.3	76	30.4	1	3	135	0.00	30.098 
13:20	37.5	37.5	37.5	75	30.3	1	3	90	0.00	30.098 
13:25	37.6	37.6	37.6	75	30.4	0	2	90	0.00	30.098 
13:30	37.8	37.8	37.8	75	30.6	0	1	90	0.00	30.096 
13:35	38.0	38.0	38.0	75	30.8	1	3	90	0.00	30.096 
13:40	38.0	38.0	38.0	74	30.5	0	3	90	0.00	30.096 
13:45	38.0	38.0	38.0	74	30.5	0	2	90	0.00	30.086 
13:50	38.2	38.2	38.2	73	30.3	0	2	112	0.00	30.086 
13:55	38.5	38.5	38.5	74	30.9	0	3	112	0.00	30.086 
14:00	38.5	38.5	38.5	74	30.9	1	3	112	0.00	30.083 
14:05	38.5	38.5	38.5	74	30.9	0	2	112	0.00	30.083 
14:10	38.5	38.5	38.5	74	30.9	1	3	112	0.00	30.083 
14:15	38.5	38.5	38.5	74	30.9	1	2	112	0.00	30.072 
14:20	38.6	38.6	38.6	74	31.0	1	3	112	0.00	30.072 
14:25	38.8	38.8	38.8	74	31.2	1	3	112	0.00	30.072 
14:30	38.9	38.9	38.9	74	31.3	0	3	112	0.00	30.070 
14:35	39.1	39.1	39.1	73	31.2	0	3	112	0.00	30.070 
14:40	39.2	39.2	39.2	74	31.6	0	1	112	0.00	30.070 
14:45	39.3	39.3	39.3	74	31.7	0	1	112	0.00	30.068 
14:50	39.5	39.5	39.5	73	31.6	0	1	112	0.00	30.068 
14:55	39.8	39.8	39.8	73	31.9	0	1	112	0.00	30.068 
15:00	39.8	39.8	39.8	73	31.9	1	3	112	0.00	30.059 
15:05	39.9	39.9	39.9	73	32.0	0	2	112	0.00	30.059 
15:10	40.1	40.1	40.1	73	32.2	0	2	112	0.00	30.059 
15:15	40.2	40.2	40.2	73	32.2	0	2	112	0.00	30.053 
15:20	40.3	40.3	40.3	73	32.3	1	2	112	0.00	30.053 
15:25	40.3	40.3	40.3	73	32.3	0	1	112	0.00	30.053 
15:30	40.5	40.5	40.5	74	32.9	0	2	112	0.00	30.050 
15:35	40.5	40.5	40.5	73	32.5	1	2	112	0.00	30.050 
15:40	40.6	40.6	40.6	73	32.6	0	2	112	0.00	30.050 
15:45	40.6	40.6	40.6	73	32.6	0	2	112	0.00	30.049 
15:50	40.8	40.8	40.8	73	32.8	0	1	112	0.00	30.049 
15:55	40.8	40.8	40.8	74	33.2	0	2	112	0.00	30.049 
16:00	40.6	40.6	40.6	74	33.0	0	2	112	0.00	30.049 
16:05	40.6	40.6	40.6	74	33.0	0	3	112	0.00	30.049 
16:10	40.6	40.6	40.6	75	33.3	0	2	112	0.00	30.049 
16:15	40.6	40.6	40.6	75	33.3	0	1	112	0.00	30.047 
16:20	40.6	40.6	40.6	75	33.3	0	1	112	0.00	30.047 
16:25	40.6	40.6	40.6	75	33.3	0	2	112	0.00	30.047 
16:30	40.6	40.6	40.6	75	33.3	0	2	112	0.00	30.049 
16:35	40.5	40.5	40.5	75	33.2	0	1	112	0.00	30.049 
16:40	40.5	40.5	40.5	75	33.2	0	1	112	0.00	30.049 
16:45	40.3	40.3	40.3	75	33.0	0	1	112	0.00	30.051 
16:50	40.3	40.3	40.3	76	33.3	0	0	---	0.00	30.051 
16:55	40.2	40.2	40.2	76	33.3	0	0	---	0.00	30.051 
17:00	40.1	40.1	40.1	76	33.2	0	0	---	0.00	30.048 
17:05	39.9	39.9	39.9	77	33.3	0	0	---	0.00	30.048 
17:10	39.8	39.8	39.8	77	33.2	0	0	---	0.00	30.048 
17:15	39.6	39.6	39.6	77	33.0	0	0	---	0.00	30.039 
17:20	39.5	39.5	39.5	78	33.2	0	0	---	0.00	30.039 
17:25	39.3	39.3	39.3	78	33.0	0	0	---	0.00	30.039 
17:30	39.3	39.3	39.3	79	33.3	0	0	---	0.00	30.038 
17:35	39.3	39.3	39.3	79	33.3	0	0	---	0.00	30.038 
17:40	39.2	39.2	39.2	79	33.2	0	0	---	0.00	30.038 
17:45	39.2	39.2	39.2	79	33.2	0	0	---	0.00	30.037 
17:50	39.2	39.2	39.2	79	33.2	0	0	---	0.00	30.037 
17:55	39.2	39.2	39.2	80	33.6	0	2	112	0.00	30.037 
18:00	39.2	39.2	39.2	80	33.6	0	1	112	0.00	30.030 
18:05	39.1	39.1	39.1	80	33.5	0	0	---	0.00	30.030 
18:10	39.1	39.1	39.1	80	33.5	0	0	---	0.00	30.030 
18:15	38.9	38.9	38.9	81	33.6	0	0	---	0.00	30.032 
18:20	38.8	38.8	38.8	81	33.5	0	1	112	0.00	30.032 
18:25	38.8	38.8	38.8	81	33.5	0	0	---	0.00	30.032 
18:30	38.8	38.8	38.8	81	33.5	0	1	112	0.00	30.028 
18:35	38.8	38.8	38.8	81	33.5	0	2	112	0.00	30.028 
18:40	38.6	38.6	38.6	82	33.6	0	1	112	0.00	30.028 
18:45	38.6	38.6	38.6	82	33.6	0	1	112	0.00	30.023 
18:50	38.6	38.6	38.6	82	33.6	0	1	112	0.00	30.023 
18:55	38.6	38.6	38.6	82	33.6	0	1	112	0.00	30.023 
19:00	38.5	38.5	38.5	82	33.5	0	1	112	0.00	30.023 
19:05	38.3	38.3	38.3	83	33.6	0	0	---	0.00	30.023 
19:10	38.2	38.2	38.2	83	33.5	0	1	112	0.00	30.023 
19:15	38.2	38.2	38.2	83	33.5	0	1	112	0.00	30.024 
19:20	38.0	38.0	38.0	83	33.3	0	1	112	0.00	30.024 
19:25	38.0	38.0	38.0	84	33.6	0	1	112	0.00	30.024 
19:30	38.0	38.0	38.0	84	33.6	0	0	---	0.00	30.021 
19:35	37.9	37.9	37.9	84	33.5	0	1	112	0.00	30.021 
19:40	37.9	37.9	37.9	84	33.5	0	0	---	0.00	30.021 
19:45	37.9	37.9	37.9	84	33.5	0	1	112	0.00	30.023 
19:50	38.0	38.0	38.0	84	33.6	0	1	112	0.00	30.023 
19:55	38.0	38.0	38.0	84	33.6	0	0	---	0.00	30.023 
20:00	38.0	38.0	38.0	84	33.6	0	0	---	0.00	30.023 
20:05	37.9	37.9	37.9	84	33.5	0	0	---	0.00	30.023 
20:10	37.9	37.9	37.9	84	33.5	0	0	---	0.00	30.023 
20:15	37.9	37.9	37.9	84	33.5	0	0	---	0.00	30.022 
20:20	37.9	37.9	37.9	84	33.5	0	0	---	0.00	30.022 
20:25	37.9	37.9	37.9	84	33.5	0	0	---	0.00	30.022 
20:30	37.9	37.9	37.9	84	33.5	0	1	112	0.00	30.013 
20:35	37.9	37.9	37.9	84	33.5	0	2	112	0.00	30.013 
20:40	38.0	38.0	38.0	84	33.6	0	2	112	0.00	30.013 
20:45	38.0	38.0	38.0	84	33.6	0	1	112	0.00	30.007 
20:50	38.0	38.0	38.0	84	33.6	0	0	---	0.00	30.007 
20:55	38.0	38.0	38.0	84	33.6	0	0	---	0.00	30.007 
21:00	38.0	38.0	38.0	84	33.6	0	2	112	0.00	30.003 
21:05	38.2	38.2	38.2	84	33.8	0	1	112	0.00	30.003 
21:10	38.0	38.0	38.0	84	33.6	0	0	---	0.00	30.003 
21:15	38.0	38.0	38.0	83	33.3	0	0	---	0.00	30.001 
21:20	38.0	38.0	38.0	83	33.3	0	1	112	0.00	30.001 
21:25	37.9	37.9	37.9	83	33.2	0	1	112	0.00	30.001 
21:30	37.8	37.8	37.8	83	33.1	0	0	---	0.00	30.003 
21:35	37.8	37.8	37.8	83	33.1	0	2	112	0.00	30.003 
21:40	37.6	37.6	37.6	84	33.2	0	0	---	0.00	30.003 
21:45	37.5	37.5	37.5	84	33.1	0	0	---	0.00	29.999 
21:50	37.3	37.3	37.3	84	32.9	0	0	---	0.00	29.999 
21:55	37.2	37.2	37.2	84	32.8	0	0	---	0.00	29.999 
22:00	37.2	37.2	37.2	84	32.8	0	0	---	0.00	30.003 
22:05	37.0	37.0	37.0	84	32.6	0	1	112	0.00	30.003 
22:10	36.9	36.9	36.9	85	32.8	0	1	112	0.00	30.003 
22:15	36.9	36.9	36.9	85	32.8	0	0	---	0.00	29.993 
22:20	36.8	36.8	36.8	85	32.7	0	0	---	0.00	29.993 
22:25	36.8	36.8	36.8	85	32.7	0	0	---	0.00	29.993 
22:30	36.9	36.9	36.9	86	33.1	0	0	---	0.00	30.000 
22:35	36.9	36.9	36.9	86	33.1	0	0	---	0.00	30.000 
22:40	37.0	37.0	37.0	86	33.2	0	0	---	0.00	30.000 
22:45	37.0	37.0	37.0	86	33.2	0	0	---	0.00	29.991 
22:50	37.0	37.0	37.0	86	33.2	0	0	---	0.00	29.991 
22:55	37.0	37.0	37.0	86	33.2	0	0	---	0.00	29.991 
23:00	37.0	37.0	37.0	86	33.2	0	0	---	0.00	29.989 
23:05	37.0	37.0	37.0	87	33.5	0	1	112	0.00	29.989 
23:10	37.0	37.0	37.0	87	33.5	0	0	---	0.00	29.989 
23:15	37.0	37.0	37.0	87	33.5	0	0	---	0.00	29.984 
23:20	37.0	37.0	37.0	87	33.5	0	0	---	0.00	29.984 
23:25	37.0	37.0	37.0	87	33.5	0	1	112	0.00	29.984 
23:30	37.0	37.0	37.0	87	33.5	0	1	112	0.00	29.972 
23:35	37.2	37.2	37.2	87	33.7	0	1	112	0.00	29.972 
23:40	37.2	37.2	37.2	87	33.7	0	1	112	0.00	29.972 
23:45	37.3	37.3	37.3	87	33.8	0	1	112	0.00	29.969 
23:50	37.5	37.5	37.5	87	34.0	0	1	112	0.00	29.969 
23:55	37.6	37.6	37.6	87	34.1	0	0	---	0.00	29.969 

CoCoRaHS
IN-AL-39
A2 Web Hosting
Creative Commons License
GoDaddy
search engine by freefind advanced

loaded 2018-11-17 12:14:41 • last modified 2010-11-18 10:43:29
Privacy PolicyDisclaimer
• wx.awcolley.com is powered by PmWiki v.2002016 •
• all content (unless otherwise noted) © 2018 A W Colley